Time;durP1;ratioP1;P1;durP2;ratioP2;P2;SDS_P1;SDS_P2;PMS_P1;PMS_P2;Temp;Humidity;BMP_temperature;BMP_pressure;BME280_temperature;BME280_humidity;BME280_pressure;Samples;Min_cycle;Max_cycle;Signal;HPM_P1;HPM_P2
2023/06/01 00:02:06;;;;;;;16.30;6.20;;;;;;;41.80;35.94;101077.81;5057738;28;20433;-85
2023/06/01 00:04:32;;;;;;;26.77;10.20;;;;;;;41.69;36.43;101071.13;5057585;28;20857;-85
2023/06/01 00:07:01;;;;;;;21.30;8.43;;;;;;;41.85;36.59;101074.09;5057602;28;20927;-85
2023/06/01 00:09:27;;;;;;;14.53;6.93;;;;;;;41.75;36.46;101066.31;5057419;28;20441;-85
2023/06/01 00:11:53;;;;;;;15.20;8.70;;;;;;;41.89;36.53;101063.34;5057567;28;20425;-84
2023/06/01 00:14:19;;;;;;;13.37;6.20;;;;;;;41.83;36.23;101066.25;5057118;28;20480;-85
2023/06/01 00:16:46;;;;;;;13.87;5.73;;;;;;;41.65;36.04;101072.88;5057321;28;20434;-85
2023/06/01 00:19:11;;;;;;;13.80;5.63;;;;;;;41.70;36.01;101072.72;5057452;28;20422;-85
2023/06/01 00:21:37;;;;;;;14.13;5.77;;;;;;;41.80;36.16;101072.34;5057302;28;20457;-85
2023/06/01 00:24:04;;;;;;;17.33;5.87;;;;;;;41.90;36.26;101063.03;5057109;28;20436;-84
2023/06/01 00:26:31;;;;;;;21.50;7.07;;;;;;;41.91;36.08;101059.16;5057530;28;20183;-85
2023/06/01 00:29:00;;;;;;;16.17;6.57;;;;;;;41.96;35.91;101056.25;5056899;28;20478;-85
2023/06/01 00:31:27;;;;;;;19.30;6.97;;;;;;;41.92;36.88;101049.06;5057432;28;20456;-85
2023/06/01 00:33:53;;;;;;;17.70;6.40;;;;;;;41.90;36.44;101045.88;5057042;28;20543;-85
2023/06/01 00:36:19;;;;;;;13.13;7.53;;;;;;;41.91;36.74;101048.25;5057123;28;20508;-85
2023/06/01 00:38:45;;;;;;;20.00;6.63;;;;;;;41.97;36.96;101044.22;5057106;28;20425;-85
2023/06/01 00:41:11;;;;;;;21.67;8.30;;;;;;;41.96;36.83;101042.63;5057400;28;20461;-84
2023/06/01 00:43:37;;;;;;;19.07;9.23;;;;;;;42.02;37.17;101040.50;5056948;28;20445;-85
2023/06/01 00:46:03;;;;;;;16.60;8.27;;;;;;;41.97;37.27;101025.16;5057018;28;20465;-85
2023/06/01 00:48:29;;;;;;;16.97;6.40;;;;;;;41.95;37.76;101021.97;5057458;28;20501;-85
2023/06/01 00:50:58;;;;;;;23.20;7.30;;;;;;;41.95;37.09;101021.16;5056888;28;20512;-85
2023/06/01 00:53:25;;;;;;;13.40;6.30;;;;;;;41.80;36.75;101022.53;5056789;28;20418;-85
2023/06/01 00:55:51;;;;;;;16.27;6.70;;;;;;;41.90;37.22;101030.31;5056760;28;20425;-85
2023/06/01 00:58:17;;;;;;;24.57;6.63;;;;;;;41.83;37.17;101035.50;5056769;28;20425;-84
2023/06/01 01:00:43;;;;;;;15.43;7.53;;;;;;;41.88;37.14;101029.06;5074685;28;20462;-85
2023/06/01 01:03:09;;;;;;;19.37;7.80;;;;;;;41.90;37.42;101029.53;5056613;28;20414;-85
2023/06/01 01:05:37;;;;;;;24.53;8.90;;;;;;;41.90;37.60;101032.25;5056560;28;20189;-85
2023/06/01 01:08:31;;;;;;;11.57;6.67;;;;;;;41.78;37.46;101028.31;5074045;28;20402;-85
2023/06/01 01:11:31;;;;;;;31.63;8.10;;;;;;;41.89;37.27;101026.00;5056337;28;20824;-85
2023/06/01 01:14:01;;;;;;;19.00;7.33;;;;;;;41.86;37.34;101022.00;5034257;28;20477;-85
2023/06/01 01:17:07;;;;;;;22.50;8.60;;;;;;;41.83;37.35;101022.66;5056267;28;20413;-85
2023/06/01 01:19:53;;;;;;;19.03;7.10;;;;;;;41.81;36.90;101016.75;5008127;28;20429;-87
2023/06/01 01:22:34;;;;;;;26.50;9.77;;;;;;;41.86;37.28;101034.81;5072709;28;20405;-86
2023/06/01 01:25:21;;;;;;;28.30;10.83;;;;;;;41.79;38.53;101032.63;5054194;28;20506;-86
2023/06/01 01:28:15;;;;;;;25.77;10.10;;;;;;;41.78;38.30;101017.41;5054272;28;20429;-86
2023/06/01 01:30:42;;;;;;;37.80;14.03;;;;;;;41.75;38.67;101009.91;5054747;28;20434;-87
2023/06/01 01:33:10;;;;;;;33.50;13.13;;;;;;;41.70;39.22;101026.41;5072830;28;20406;-87
2023/06/01 01:35:38;;;;;;;35.23;12.97;;;;;;;41.65;39.08;101025.78;5054635;28;20441;-87
2023/06/01 01:38:04;;;;;;;23.50;10.20;;;;;;;41.27;38.56;101002.88;5074151;28;20390;-85
2023/06/01 01:40:30;;;;;;;16.57;6.70;;;;;;;41.11;39.29;100993.63;5055948;28;20469;-85
2023/06/01 01:42:56;;;;;;;22.37;6.80;;;;;;;41.08;39.30;101005.19;5055905;28;20417;-86
2023/06/01 01:45:23;;;;;;;19.57;7.93;;;;;;;40.99;39.91;101018.00;5055766;28;20418;-85
2023/06/01 01:47:55;;;;;;;20.13;8.80;;;;;;;40.77;39.56;101024.41;5055842;28;20847;-85
2023/06/01 01:50:26;;;;;;;14.23;7.10;;;;;;;40.70;39.46;101034.97;5055663;28;20413;-85
2023/06/01 01:52:55;;;;;;;11.20;6.20;;;;;;;40.52;40.00;101037.72;5055964;28;20532;-84
2023/06/01 01:55:23;;;;;;;14.57;6.87;;;;;;;40.68;40.09;101031.78;5055689;28;20939;-85
2023/06/01 01:57:52;;;;;;;19.13;6.60;;;;;;;40.81;40.29;101031.59;5055532;28;20418;-85
2023/06/01 02:00:19;;;;;;;24.37;8.57;;;;;;;40.94;40.15;101029.84;5055524;28;20484;-85
2023/06/01 02:02:46;;;;;;;20.63;7.33;;;;;;;40.99;40.48;101039.75;5055578;28;20438;-85
2023/06/01 02:05:12;;;;;;;16.63;6.77;;;;;;;40.95;39.46;101030.66;5055495;28;20522;-85
2023/06/01 02:07:38;;;;;;;12.90;6.30;;;;;;;40.85;38.84;101039.91;5055470;28;20896;-85
2023/06/01 02:10:04;;;;;;;12.70;4.87;;;;;;;40.89;38.82;101015.59;5055410;28;20442;-85
2023/06/01 02:12:30;;;;;;;15.07;6.47;;;;;;;40.77;39.22;101029.88;5055330;28;20434;-85
2023/06/01 02:14:56;;;;;;;19.80;8.57;;;;;;;40.75;39.28;101023.94;5054785;28;20549;-85
2023/06/01 02:17:25;;;;;;;40.33;13.03;;;;;;;40.44;39.59;101015.91;5055269;28;20182;-85
2023/06/01 02:19:51;;;;;;;26.23;9.70;;;;;;;40.17;41.08;101012.41;5054659;28;20491;-85
2023/06/01 02:22:17;;;;;;;22.60;8.50;;;;;;;40.12;40.49;101012.53;5055094;28;20424;-85
2023/06/01 02:24:42;;;;;;;17.70;7.33;;;;;;;40.06;40.00;101035.56;5055080;28;20414;-85
2023/06/01 02:27:08;;;;;;;10.30;5.73;;;;;;;40.05;39.57;101050.25;5054971;28;20544;-84
2023/06/01 02:29:34;;;;;;;11.67;4.90;;;;;;;40.02;38.76;101040.81;5055127;28;20183;-84
2023/06/01 02:32:00;;;;;;;10.50;4.70;;;;;;;39.84;39.02;101035.63;5073109;28;20505;-84
2023/06/01 02:34:26;;;;;;;13.00;6.60;;;;;;;39.71;39.34;101027.28;5054904;28;20508;-84
2023/06/01 02:36:55;;;;;;;12.93;5.10;;;;;;;39.67;39.12;100999.16;5054850;28;20207;-84
2023/06/01 02:39:22;;;;;;;11.37;5.70;;;;;;;39.36;40.83;101004.63;5054741;28;20226;-85
2023/06/01 02:41:48;;;;;;;8.40;4.53;;;;;;;39.52;39.83;101012.34;5054780;28;20456;-85
2023/06/01 02:44:14;;;;;;;14.47;5.70;;;;;;;39.65;40.18;101020.38;5054566;28;20461;-84
2023/06/01 02:46:40;;;;;;;34.53;11.97;;;;;;;39.75;40.52;101027.47;5054889;28;20175;-84
2023/06/01 02:49:06;;;;;;;30.63;11.00;;;;;;;39.89;40.03;101046.34;5054705;28;20525;-85
2023/06/01 02:51:33;;;;;;;25.63;8.80;;;;;;;39.92;39.17;101049.25;5072794;28;20162;-85
2023/06/01 03:10:52;;;;;;;37.40;13.53;;;;;;;40.01;40.54;100970.47;5143103;27;21055;-85
2023/06/01 03:13:18;;;;;;;22.17;11.97;;;;;;;40.15;40.37;100954.06;5126949;28;20944;-85
2023/06/01 03:15:47;;;;;;;25.73;10.57;;;;;;;40.33;40.80;100988.28;5126274;28;20480;-85
2023/06/01 03:18:13;;;;;;;26.40;11.07;;;;;;;40.50;40.66;101028.25;5100006;28;20428;-85
2023/06/01 03:20:39;;;;;;;27.83;11.80;;;;;;;40.46;40.75;101052.56;5110373;28;20483;-85
2023/06/01 03:23:05;;;;;;;32.40;12.77;;;;;;;40.58;40.80;101072.88;5111993;28;20423;-85
2023/06/01 03:25:33;;;;;;;29.27;9.83;;;;;;;40.61;40.53;101059.47;5105982;28;20288;-87
2023/06/01 03:27:59;;;;;;;26.90;12.13;;;;;;;40.63;40.85;101023.78;5122063;28;20426;-87
2023/06/01 03:30:25;;;;;;;40.13;15.23;;;;;;;40.59;41.14;100993.72;5105197;28;20901;-85
2023/06/01 03:32:51;;;;;;;38.83;11.53;;;;;;;40.39;39.87;101022.34;5096775;28;20423;-85
2023/06/01 03:35:18;;;;;;;21.53;8.23;;;;;;;40.27;37.70;101054.78;5099881;28;20425;-85
2023/06/01 03:37:45;;;;;;;21.97;6.43;;;;;;;40.25;36.93;101057.00;5096647;28;20415;-85
2023/06/01 03:40:11;;;;;;;25.20;6.60;;;;;;;40.25;36.67;101043.41;5099463;28;20419;-86
2023/06/01 03:42:45;;;;;;;14.43;4.10;;;;;;;40.20;36.26;101038.91;5091442;28;20934;-85
2023/06/01 03:45:12;;;;;;;16.13;4.23;;;;;;;40.27;36.69;101049.34;5104873;28;20415;-85
2023/06/01 03:47:38;;;;;;;13.80;4.57;;;;;;;40.39;36.47;101057.69;5104825;28;20495;-85
2023/06/01 03:50:06;;;;;;;9.50;4.30;;;;;;;40.43;36.26;101063.25;5091463;28;20480;-85
2023/06/01 03:52:33;;;;;;;13.10;4.40;;;;;;;40.47;35.40;101061.50;5098717;28;20943;-84
2023/06/01 03:55:04;;;;;;;11.60;5.10;;;;;;;40.38;36.40;101075.09;5097428;28;20439;-85
2023/06/01 03:57:30;;;;;;;11.33;4.67;;;;;;;40.42;36.44;101073.34;5109768;28;20431;-85
2023/06/01 03:59:57;;;;;;;13.20;5.10;;;;;;;40.41;35.99;101071.75;5090603;28;20905;-85
2023/06/01 04:02:23;;;;;;;16.00;5.70;;;;;;;40.26;36.44;101083.84;5103629;28;20516;-86
2023/06/01 04:04:50;;;;;;;9.97;4.40;;;;;;;40.35;36.56;101085.81;5072541;28;20420;-85
2023/06/01 04:07:21;;;;;;;18.40;6.73;;;;;;;40.41;36.69;101088.06;5090875;28;20956;-85
2023/06/01 04:09:48;;;;;;;22.20;6.60;;;;;;;40.33;37.23;101071.72;5108290;28;20513;-84
2023/06/01 04:12:15;;;;;;;22.50;10.20;;;;;;;40.39;37.60;101065.84;5090865;28;20419;-85
2023/06/01 04:14:41;;;;;;;24.93;6.47;;;;;;;40.32;39.86;101064.69;5089434;28;20481;-84
2023/06/01 04:17:07;;;;;;;24.70;8.57;;;;;;;40.37;39.88;101089.00;5089706;28;20976;-85
2023/06/01 04:19:34;;;;;;;24.30;11.17;;;;;;;40.37;39.75;101102.59;5089061;28;20437;-84
2023/06/01 04:22:00;;;;;;;27.80;9.50;;;;;;;40.42;39.94;101099.72;5077079;28;20420;-85
2023/06/01 04:24:27;;;;;;;18.83;7.20;;;;;;;40.49;39.77;101092.72;5075349;28;20429;-85
2023/06/01 04:26:53;;;;;;;15.13;6.40;;;;;;;40.52;39.12;101073.06;5077284;28;20436;-86
2023/06/01 04:29:22;;;;;;;16.37;5.27;;;;;;;40.52;38.91;101072.25;5090294;28;20489;-85
2023/06/01 04:31:48;;;;;;;15.47;4.43;;;;;;;40.47;38.66;101080.53;5074234;28;20856;-85
2023/06/01 04:34:14;;;;;;;17.77;4.93;;;;;;;40.41;38.04;101089.97;5088974;28;20931;-86
2023/06/01 04:36:40;;;;;;;11.20;5.70;;;;;;;39.99;37.94;101086.81;5077125;28;20504;-86
2023/06/01 04:39:07;;;;;;;10.37;4.93;;;;;;;39.94;37.60;101066.03;5075138;28;20438;-87
2023/06/01 04:41:35;;;;;;;12.03;6.00;;;;;;;39.99;37.52;101029.75;5070269;28;20871;-85
2023/06/01 04:44:05;;;;;;;10.03;5.20;;;;;;;40.02;37.81;101037.25;5074513;28;20448;-86
2023/06/01 04:46:32;;;;;;;12.97;5.90;;;;;;;40.04;37.35;101056.81;5076669;28;20421;-85
2023/06/01 04:49:00;;;;;;;19.37;8.53;;;;;;;39.86;37.78;101082.31;5076156;28;20555;-85
2023/06/01 04:51:30;;;;;;;20.73;9.30;;;;;;;39.51;38.47;101090.25;5074904;28;20989;-85
2023/06/01 04:53:56;;;;;;;18.10;7.63;;;;;;;39.31;38.34;101088.06;5090519;28;20413;-86
2023/06/01 04:56:26;;;;;;;19.47;6.83;;;;;;;39.15;38.95;101093.03;5074338;28;20490;-85
2023/06/01 04:58:54;;;;;;;11.10;5.03;;;;;;;39.25;38.69;101094.75;5074520;28;20437;-85
2023/06/01 05:01:29;;;;;;;8.47;3.97;;;;;;;39.33;38.80;101094.78;5094112;28;20468;-87
2023/06/01 05:03:55;;;;;;;8.13;4.07;;;;;;;39.56;38.41;101075.75;5063030;28;20490;-87
2023/06/01 05:06:22;;;;;;;7.70;3.83;;;;;;;39.66;37.88;101054.59;5064449;28;20457;-85
2023/06/01 05:08:48;;;;;;;12.00;2.97;;;;;;;39.63;37.70;101046.25;5058998;28;20610;-87
2023/06/01 05:11:14;;;;;;;8.57;3.70;;;;;;;39.69;37.26;101069.44;5065751;28;20450;-86
2023/06/01 05:13:41;;;;;;;9.30;2.87;;;;;;;39.71;36.95;101087.03;5073044;28;20426;-87
2023/06/01 05:16:08;;;;;;;9.53;3.33;;;;;;;39.78;37.84;101091.19;5072524;28;20951;-87
2023/06/01 05:18:35;;;;;;;7.70;2.60;;;;;;;39.78;38.42;101097.47;5072519;28;20434;-87
2023/06/01 05:21:02;;;;;;;7.30;3.03;;;;;;;39.86;38.55;101093.97;5072359;28;20417;-87
2023/06/01 05:23:29;;;;;;;7.73;2.80;;;;;;;39.96;38.55;101065.69;5059859;28;20409;-87
2023/06/01 05:26:01;;;;;;;7.20;3.70;;;;;;;39.99;38.60;101078.66;5059011;28;20951;-87
2023/06/01 05:28:31;;;;;;;10.00;3.20;;;;;;;40.07;38.85;101080.63;5064350;28;20422;-86
2023/06/01 05:30:58;;;;;;;14.13;3.97;;;;;;;40.02;38.18;101081.56;5062953;28;20884;-86
2023/06/01 05:33:24;;;;;;;10.70;4.70;;;;;;;40.03;38.55;101061.41;5062318;28;20418;-85
2023/06/01 05:35:50;;;;;;;8.20;3.43;;;;;;;40.13;38.32;101078.56;5059300;28;20835;-86
2023/06/01 05:38:16;;;;;;;10.80;4.70;;;;;;;40.07;38.36;101088.78;5072052;28;20422;-86
2023/06/01 05:40:42;;;;;;;11.40;3.53;;;;;;;40.10;38.09;101074.56;5072001;28;20425;-87
2023/06/01 05:43:08;;;;;;;9.57;3.30;;;;;;;40.13;37.68;101087.50;5072309;28;20186;-86
2023/06/01 05:45:34;;;;;;;10.17;4.67;;;;;;;40.06;38.01;101094.53;5071655;28;20613;-87
2023/06/01 05:48:00;;;;;;;9.40;3.93;;;;;;;40.07;38.16;101105.06;5072146;28;20421;-86
2023/06/01 05:50:26;;;;;;;9.37;4.23;;;;;;;40.12;37.86;101098.69;5071992;28;21134;-87
2023/06/01 05:52:52;;;;;;;6.97;3.10;;;;;;;40.17;38.13;101112.94;5073492;28;20211;-87
2023/06/01 05:55:18;;;;;;;9.20;4.40;;;;;;;40.12;38.14;101123.16;5068124;28;20431;-86
2023/06/01 05:57:45;;;;;;;9.20;4.07;;;;;;;40.15;38.26;101122.53;5061930;28;20550;-88
2023/06/01 06:00:15;;;;;;;11.03;6.07;;;;;;;40.07;38.65;101134.16;5071503;28;20191;-87
2023/06/01 06:02:43;;;;;;;9.97;6.63;;;;;;;40.15;38.92;101142.38;5071672;28;20417;-88
2023/06/01 06:05:09;;;;;;;10.10;6.37;;;;;;;40.24;38.56;101129.59;5070653;28;20422;-84
2023/06/01 06:07:35;;;;;;;12.60;7.53;;;;;;;40.30;38.33;101135.69;5062755;28;20452;-84
2023/06/01 06:10:01;;;;;;;14.07;8.23;;;;;;;40.26;38.42;101124.63;5069247;28;20479;-84
2023/06/01 06:12:27;;;;;;;10.77;6.40;;;;;;;40.28;38.29;101118.91;5061635;28;20873;-87
2023/06/01 06:14:53;;;;;;;10.30;7.20;;;;;;;40.21;38.95;101119.34;5062814;28;20947;-86
2023/06/01 06:17:19;;;;;;;10.33;6.10;;;;;;;40.21;38.24;101108.50;5058040;28;20976;-86
2023/06/01 06:19:47;;;;;;;9.30;5.27;;;;;;;40.29;37.48;101096.03;5054199;28;20183;-87
2023/06/01 06:22:13;;;;;;;11.87;5.37;;;;;;;40.20;37.88;101092.47;5056636;28;20427;-85
2023/06/01 06:24:39;;;;;;;11.23;5.57;;;;;;;40.23;37.41;101087.22;5069470;28;20429;-86
2023/06/01 06:27:06;;;;;;;9.57;5.33;;;;;;;40.15;38.07;101096.16;5062071;28;20425;-85
2023/06/01 06:29:32;;;;;;;9.50;5.17;;;;;;;39.94;38.03;101085.03;5062701;28;20458;-88
2023/06/01 06:31:58;;;;;;;9.30;4.20;;;;;;;40.06;37.90;101086.38;5059856;28;20441;-86
2023/06/01 06:34:24;;;;;;;8.53;4.03;;;;;;;39.94;37.65;101093.19;5065000;28;20429;-87
2023/06/01 06:36:52;;;;;;;10.50;4.93;;;;;;;40.05;37.51;101096.44;5063652;28;20456;-86
2023/06/01 06:39:18;;;;;;;9.90;4.93;;;;;;;40.15;37.35;101087.22;5061428;28;20530;-86
2023/06/01 06:41:44;;;;;;;12.33;5.90;;;;;;;40.21;37.11;101073.16;5071145;28;20810;-86
2023/06/01 06:44:10;;;;;;;8.97;5.27;;;;;;;40.22;36.64;101079.41;5058228;28;20438;-86
2023/06/01 06:46:36;;;;;;;8.40;5.40;;;;;;;40.26;37.25;101074.91;5071306;28;20514;-87
2023/06/01 06:49:05;;;;;;;13.43;7.30;;;;;;;40.24;37.24;101058.91;5069126;28;20583;-85
2023/06/01 06:51:31;;;;;;;12.57;8.60;;;;;;;40.27;36.81;101038.47;5070674;28;20446;-86
2023/06/01 06:53:58;;;;;;;13.00;8.57;;;;;;;40.32;36.89;101042.94;5060068;28;20446;-86
2023/06/01 06:56:25;;;;;;;12.50;7.90;;;;;;;40.36;36.46;101041.19;5071006;28;20445;-86
2023/06/01 06:58:51;;;;;;;11.47;7.83;;;;;;;40.38;37.12;101039.75;5064866;28;20494;-85
2023/06/01 07:01:16;;;;;;;18.77;9.23;;;;;;;40.24;37.42;101039.91;5070979;28;20430;-85
2023/06/01 07:03:42;;;;;;;14.47;10.03;;;;;;;40.25;37.54;101032.53;5066200;28;20190;-85
2023/06/01 07:06:08;;;;;;;14.40;8.53;;;;;;;40.27;37.46;101024.88;5063953;28;20325;-86
2023/06/01 07:08:34;;;;;;;16.10;9.40;;;;;;;40.30;37.30;101029.69;5062384;28;20681;-86
2023/06/01 07:11:00;;;;;;;15.73;7.60;;;;;;;40.36;37.96;101024.88;5092608;28;20175;-87
2023/06/01 07:13:26;;;;;;;14.50;9.57;;;;;;;40.40;37.89;101034.00;5073740;28;20421;-85
2023/06/01 07:15:56;;;;;;;14.60;10.77;;;;;;;40.41;37.64;101050.00;5074207;28;20421;-85
2023/06/01 07:18:21;;;;;;;13.77;9.33;;;;;;;40.45;37.84;101056.38;5073901;28;20198;-86
2023/06/01 07:20:47;;;;;;;14.70;11.00;;;;;;;40.51;37.94;101055.13;5074223;28;20481;-85
2023/06/01 07:23:15;;;;;;;15.77;11.83;;;;;;;40.43;37.63;101058.63;5073848;28;20670;-86
2023/06/01 07:25:41;;;;;;;18.30;10.50;;;;;;;40.37;37.85;101054.47;5073960;28;21018;-87
2023/06/01 07:28:08;;;;;;;16.70;12.80;;;;;;;40.45;38.13;101061.00;5073974;28;20421;-84
2023/06/01 07:30:37;;;;;;;19.87;12.83;;;;;;;40.51;37.63;101066.00;5063242;28;20500;-83
2023/06/01 07:33:03;;;;;;;14.27;9.73;;;;;;;40.39;37.82;101079.41;5071408;28;20430;-86
2023/06/01 07:35:29;;;;;;;15.30;11.33;;;;;;;40.29;38.65;101091.38;5062133;28;20800;-82
2023/06/01 07:37:55;;;;;;;16.70;11.43;;;;;;;40.33;38.43;101090.75;5071902;28;20800;-84
2023/06/01 07:40:22;;;;;;;16.03;10.70;;;;;;;40.31;37.79;101093.78;5067803;28;20424;-76
2023/06/01 07:42:48;;;;;;;15.53;11.60;;;;;;;40.36;38.51;101093.63;5047052;28;20930;-84
2023/06/01 07:45:14;;;;;;;16.63;10.60;;;;;;;40.42;38.19;101095.09;5058436;28;20524;-85
2023/06/01 07:47:39;;;;;;;20.43;11.80;;;;;;;40.51;37.77;101093.19;5057968;28;20175;-83
2023/06/01 07:50:07;;;;;;;16.40;11.07;;;;;;;40.47;38.43;101099.56;5073082;28;20456;-84
2023/06/01 07:52:33;;;;;;;19.10;12.30;;;;;;;40.55;38.11;101104.25;5084335;28;20187;-82
2023/06/01 07:54:59;;;;;;;15.50;10.27;;;;;;;40.60;37.70;101098.66;5061849;28;20449;-83
2023/06/01 07:57:25;;;;;;;13.57;8.50;;;;;;;40.57;37.71;101087.59;5066757;28;20183;-84
2023/06/01 07:59:51;;;;;;;13.33;8.60;;;;;;;40.66;37.60;101080.25;5058196;28;20524;-83
2023/06/01 08:02:17;;;;;;;15.30;10.77;;;;;;;40.68;37.87;101069.84;5067031;28;20420;-85
2023/06/01 08:04:44;;;;;;;20.40;10.27;;;;;;;40.62;37.95;101066.50;5077905;28;20265;-86
2023/06/01 08:07:12;;;;;;;18.17;8.70;;;;;;;40.72;37.71;101074.34;5077285;28;20178;-85
2023/06/01 08:09:38;;;;;;;13.07;8.63;;;;;;;40.77;37.84;101079.63;5073648;28;20512;-86
2023/06/01 08:12:05;;;;;;;11.07;7.47;;;;;;;40.69;38.16;101107.59;5075073;28;20420;-84
2023/06/01 08:14:33;;;;;;;12.37;6.90;;;;;;;40.81;38.05;101107.75;5073853;28;20573;-83
2023/06/01 08:17:01;;;;;;;17.17;7.80;;;;;;;40.89;37.82;101116.25;5059944;28;20430;-85
2023/06/01 08:19:28;;;;;;;25.23;8.77;;;;;;;40.84;37.79;101110.97;5070096;28;20462;-84
2023/06/01 08:21:54;;;;;;;16.40;7.30;;;;;;;40.89;37.46;101094.50;5071849;28;20847;-87
2023/06/01 08:24:24;;;;;;;24.30;8.67;;;;;;;40.78;37.71;101081.22;5074405;28;20514;-87
2023/06/01 08:26:50;;;;;;;19.33;9.47;;;;;;;40.95;38.25;101064.13;5063933;28;20979;-86
2023/06/01 08:29:16;;;;;;;19.17;8.70;;;;;;;40.89;38.16;101050.97;5084979;22;20897;-84
2023/06/01 08:31:42;;;;;;;17.13;8.70;;;;;;;41.06;38.41;101042.78;5048978;28;20428;-87
2023/06/01 08:34:08;;;;;;;19.80;8.10;;;;;;;41.08;37.92;101054.16;5065436;28;20199;-86
2023/06/01 08:36:34;;;;;;;15.10;8.93;;;;;;;41.04;38.21;101067.59;5053680;28;20912;-88
2023/06/01 08:39:20;;;;;;;16.87;7.77;;;;;;;41.04;38.16;101078.50;5053182;28;20168;-85
2023/06/01 08:42:02;;;;;;;20.17;9.90;;;;;;;41.11;38.29;101088.09;5053151;28;20446;-85
2023/06/01 08:44:33;;;;;;;18.77;8.03;;;;;;;41.11;38.25;101083.44;5052328;28;20431;-87
2023/06/01 08:47:00;;;;;;;15.83;7.63;;;;;;;41.15;38.33;101092.56;5053496;28;20528;-85
2023/06/01 08:49:29;;;;;;;14.73;8.23;;;;;;;41.19;38.73;101093.53;5069900;28;20458;-85
2023/06/01 08:51:59;;;;;;;16.03;9.13;;;;;;;41.21;38.59;101094.00;5053223;28;20470;-86
2023/06/01 08:54:26;;;;;;;22.93;8.63;;;;;;;41.28;38.54;101093.50;5054459;28;20473;-87
2023/06/01 08:56:52;;;;;;;20.70;9.27;;;;;;;41.15;38.65;101100.72;5053294;28;21369;-89
2023/06/01 08:59:18;;;;;;;30.40;11.27;;;;;;;41.15;38.63;101118.97;5051196;28;20459;-83
2023/06/01 09:01:46;;;;;;;20.57;11.63;;;;;;;41.12;39.34;101125.06;5033552;28;20487;-83
2023/06/01 09:04:13;;;;;;;14.07;8.80;;;;;;;41.32;38.67;101125.22;5051552;28;20434;-84
2023/06/01 09:06:42;;;;;;;20.20;11.13;;;;;;;41.08;38.76;101127.63;5051346;28;20812;-83
2023/06/01 09:09:11;;;;;;;29.23;12.27;;;;;;;41.21;38.59;101121.22;5052089;28;20470;-84
2023/06/01 09:11:37;;;;;;;15.00;9.80;;;;;;;41.06;39.19;101129.84;5039944;28;20469;-82
2023/06/01 09:14:21;;;;;;;20.30;10.77;;;;;;;41.21;38.82;101129.38;5052086;28;20422;-81
2023/06/01 09:16:48;;;;;;;24.33;12.97;;;;;;;41.28;38.44;101131.59;5050440;28;20960;-83
2023/06/01 09:19:14;;;;;;;20.30;12.73;;;;;;;41.33;38.41;101134.19;5049474;28;20474;-85
2023/06/01 09:21:40;;;;;;;18.03;11.50;;;;;;;41.19;38.25;101145.25;5049683;28;20423;-87
2023/06/01 09:24:19;;;;;;;31.47;14.70;;;;;;;41.27;38.34;101140.91;5054153;28;20426;-89
2023/06/01 09:26:50;;;;;;;20.53;10.90;;;;;;;41.10;38.22;101138.19;5053047;28;20478;-88
2023/06/01 09:29:16;;;;;;;19.73;9.33;;;;;;;41.09;38.33;101129.22;5051283;28;20489;-90
2023/06/01 09:31:46;;;;;;;15.87;8.53;;;;;;;41.11;38.16;101132.41;5052632;28;20434;-91
2023/06/01 09:34:19;;;;;;;23.57;12.40;;;;;;;41.11;38.00;101137.06;5047907;28;20426;-91
2023/06/01 09:36:50;;;;;;;16.90;8.33;;;;;;;41.12;38.18;101141.38;5052007;28;20430;-89
2023/06/01 09:39:22;;;;;;;17.33;8.77;;;;;;;41.19;37.99;101139.78;5027822;28;20466;-91
2023/06/01 09:41:49;;;;;;;21.00;7.93;;;;;;;41.26;37.65;101148.25;5036863;28;20423;-86
2023/06/01 09:44:30;;;;;;;14.67;8.30;;;;;;;41.21;37.97;101151.16;5050841;28;20419;-85
2023/06/01 09:46:59;;;;;;;17.90;8.13;;;;;;;41.30;37.86;101151.91;5033654;28;20522;-86
2023/06/01 09:49:34;;;;;;;23.20;9.70;;;;;;;41.27;37.38;101155.31;5051037;28;20472;-87
2023/06/01 09:52:03;;;;;;;14.37;8.13;;;;;;;41.34;37.46;101161.09;5049999;28;20418;-88
2023/06/01 09:54:32;;;;;;;19.00;9.27;;;;;;;41.32;37.05;101157.06;5052052;28;20801;-87
2023/06/01 09:57:00;;;;;;;20.73;8.90;;;;;;;41.27;37.48;101141.69;5050554;28;20940;-87
2023/06/01 09:59:30;;;;;;;17.27;7.70;;;;;;;41.41;37.10;101146.97;5051370;28;20447;-85
2023/06/01 10:01:59;;;;;;;23.83;10.43;;;;;;;41.31;37.25;101145.38;5051621;28;21043;-86
2023/06/01 10:04:27;;;;;;;15.60;8.93;;;;;;;41.25;37.07;101138.50;5051865;28;20433;-87
2023/06/01 10:06:57;;;;;;;17.27;7.57;;;;;;;41.13;37.43;101146.53;5051441;28;20518;-88
2023/06/01 10:09:26;;;;;;;11.77;6.53;;;;;;;41.24;37.22;101145.03;5051071;28;20477;-86
2023/06/01 10:11:55;;;;;;;17.30;7.97;;;;;;;41.25;37.27;101154.84;5051677;28;20484;-87
2023/06/01 10:14:25;;;;;;;13.87;8.00;;;;;;;41.25;37.32;101160.28;5042514;28;20439;-88
2023/06/01 10:16:53;;;;;;;20.90;10.00;;;;;;;41.36;36.80;101163.47;5050876;28;20444;-87
2023/06/01 10:19:21;;;;;;;15.47;8.00;;;;;;;41.01;37.29;101166.22;5050963;28;20792;-87
2023/06/01 10:21:56;;;;;;;14.90;8.00;;;;;;;41.23;37.28;101172.59;5052085;28;20484;-90
2023/06/01 10:24:26;;;;;;;15.07;8.20;;;;;;;41.27;37.37;101171.63;5051418;28;20434;-80
2023/06/01 10:27:05;;;;;;;16.37;8.60;;;;;;;41.33;37.32;101175.03;5061087;28;20422;-86
2023/06/01 10:29:32;;;;;;;15.47;7.97;;;;;;;41.35;37.24;101186.38;5040998;28;20734;-86
2023/06/01 10:31:58;;;;;;;27.63;8.93;;;;;;;41.27;37.49;101184.44;5027345;28;20427;-85
2023/06/01 10:34:44;;;;;;;17.00;6.70;;;;;;;41.33;37.23;101185.91;5048324;28;20487;-87
2023/06/01 10:37:15;;;;;;;19.93;7.77;;;;;;;41.46;37.27;101171.31;5044265;28;20184;-88
2023/06/01 10:39:41;;;;;;;26.60;9.97;;;;;;;41.30;37.21;101165.53;5049541;28;20485;-87
2023/06/01 10:42:13;;;;;;;15.30;5.97;;;;;;;41.23;37.40;101157.06;5050360;28;20522;-88
2023/06/01 10:44:39;;;;;;;11.10;5.80;;;;;;;41.37;37.07;101158.81;5050768;28;20426;-88
2023/06/01 10:47:11;;;;;;;8.50;5.00;;;;;;;41.46;37.32;101148.72;5051027;28;20431;-88
2023/06/01 10:49:49;;;;;;;22.93;8.97;;;;;;;41.57;37.27;101142.63;5051504;28;20469;-86
2023/06/01 10:52:27;;;;;;;10.57;5.30;;;;;;;41.45;37.07;101144.41;5049009;28;20484;-87
2023/06/01 10:55:13;;;;;;;14.40;5.60;;;;;;;41.54;36.68;101143.25;5050921;28;20429;-86
2023/06/01 10:57:40;;;;;;;11.00;5.50;;;;;;;41.62;36.61;101144.38;5042980;28;20422;-85
2023/06/01 11:00:26;;;;;;;15.83;6.20;;;;;;;41.67;36.73;101146.09;5050826;28;20450;-87
2023/06/01 11:03:03;;;;;;;18.40;5.87;;;;;;;41.60;36.38;101139.22;5050892;28;20423;-88
2023/06/01 11:05:47;;;;;;;14.93;6.20;;;;;;;41.59;36.71;101140.34;5042354;28;20430;-87
2023/06/01 11:08:19;;;;;;;14.03;5.97;;;;;;;41.63;36.31;101145.97;5046704;28;20426;-86
2023/06/01 11:10:54;;;;;;;11.13;5.33;;;;;;;41.61;36.58;101131.84;5050705;28;20545;-86
2023/06/01 11:13:34;;;;;;;17.87;6.07;;;;;;;41.69;36.15;101125.59;5050581;28;20429;-86
2023/06/01 11:16:18;;;;;;;12.00;4.63;;;;;;;41.74;36.32;101119.16;5052215;28;20430;-86
2023/06/01 11:18:58;;;;;;;12.77;5.50;;;;;;;41.79;36.03;101113.56;5040841;28;20415;-87
2023/06/01 11:21:46;;;;;;;14.43;5.10;;;;;;;41.81;36.06;101111.31;5050528;28;20544;-86
2023/06/01 11:24:14;;;;;;;12.63;5.87;;;;;;;41.84;36.22;101100.53;5051435;28;20438;-91
2023/06/01 11:26:42;;;;;;;15.03;5.30;;;;;;;41.84;36.17;101095.09;5051191;28;20513;-91
2023/06/01 11:29:22;;;;;;;12.80;5.30;;;;;;;41.84;36.32;101081.47;5049415;28;20513;-89
2023/06/01 11:31:52;;;;;;;23.07;9.07;;;;;;;41.60;36.59;101089.41;5053508;28;20426;-89
2023/06/01 11:34:19;;;;;;;15.90;6.40;;;;;;;41.76;36.25;101086.97;5054637;28;20429;-90
2023/06/01 11:36:48;;;;;;;9.93;5.50;;;;;;;41.86;35.54;101079.22;5054855;28;20426;-86
2023/06/01 11:39:28;;;;;;;22.60;7.00;;;;;;;41.88;36.17;101078.13;5056177;28;20501;-91
2023/06/01 11:42:12;;;;;;;17.07;8.63;;;;;;;41.95;36.15;101083.84;5054262;28;20426;-87